createdAt,value
2019-04-16T00:02:21.878Z,94289.96
2019-04-16T00:04:56.707Z,94297.84
2019-04-16T00:07:43.654Z,94292.54
2019-04-16T00:10:16.910Z,94294.05
2019-04-16T00:13:05.313Z,94282.30
2019-04-16T00:15:33.952Z,94283.73
2019-04-16T00:18:02.579Z,94287.90
2019-04-16T00:20:36.893Z,94284.53
2019-04-16T00:23:04.877Z,94279.09
2019-04-16T00:25:33.512Z,94284.43
2019-04-16T00:28:02.174Z,94283.64
2019-04-16T00:30:35.470Z,94276.84
2019-04-16T00:33:01.147Z,94270.94
2019-04-16T00:35:29.862Z,94268.77
2019-04-16T00:37:58.489Z,94277.30
2019-04-16T00:40:27.321Z,94279.87
2019-04-16T00:42:56.069Z,94274.95
2019-04-16T00:45:24.692Z,94279.31
2019-04-16T00:47:53.316Z,94280.73
2019-04-16T00:50:21.985Z,94275.75
2019-04-16T00:52:50.605Z,94277.21
2019-04-16T00:55:19.233Z,94272.68
2019-04-16T00:57:48.675Z,94277.45
2019-04-16T01:00:17.959Z,94279.20
2019-04-16T01:02:47.087Z,94277.74
2019-04-16T01:05:15.834Z,94272.07
2019-04-16T01:07:44.463Z,94277.73
2019-04-16T01:10:13.086Z,94275.19
2019-04-16T01:12:41.679Z,94285.55
2019-04-16T01:15:10.408Z,94277.86
2019-04-16T01:17:39.034Z,94284.39
2019-04-16T01:20:11.844Z,94279.97
2019-04-16T01:22:38.037Z,94279.20
2019-04-16T01:25:07.155Z,94293.89
2019-04-16T01:27:37.463Z,94293.89
2019-04-16T01:30:08.457Z,94293.17
2019-04-16T01:32:44.764Z,94295.53
2019-04-16T01:38:28.048Z,94286.86
2019-04-16T01:41:04.246Z,94288.97
2019-04-16T01:43:32.916Z,94290.77
2019-04-16T01:46:02.491Z,94289.18
2019-04-16T01:48:31.433Z,94286.56
2019-04-16T01:51:00.097Z,94286.75
2019-04-16T01:53:28.723Z,94285.93
2019-04-16T01:55:57.741Z,94285.17
2019-04-16T01:58:33.839Z,94290.03
2019-04-16T02:01:01.735Z,94286.77
2019-04-16T02:03:30.359Z,94280.53
2019-04-16T02:05:59.209Z,94283.73
2019-04-16T02:08:28.295Z,94289.31
2019-04-16T02:10:58.176Z,94288.89
2019-04-16T02:13:26.843Z,94285.65
2019-04-16T02:15:55.468Z,94289.16
2019-04-16T02:18:24.193Z,94286.08
2019-04-16T02:20:52.862Z,94290.73
2019-04-16T02:23:21.489Z,94288.73
2019-04-16T02:25:51.392Z,94290.73
2019-04-16T02:28:21.751Z,94295.23
2019-04-16T02:30:50.584Z,94302.13
2019-04-16T02:33:19.211Z,94303.52
2019-04-16T02:35:47.915Z,94297.17
2019-04-16T02:38:16.559Z,94304.00
2019-04-16T02:40:51.297Z,94298.33
2019-04-16T02:43:15.936Z,94306.33
2019-04-16T02:45:44.587Z,94298.76
2019-04-16T02:48:16.733Z,94310.14
2019-04-16T02:50:45.326Z,94296.44
2019-04-16T02:53:31.820Z,94295.31
2019-04-16T02:56:20.285Z,94295.90
2019-04-16T02:58:53.526Z,94287.33
2019-04-16T03:01:23.785Z,94285.88
2019-04-16T03:03:56.235Z,94283.45
2019-04-16T03:06:24.440Z,94285.33
2019-04-16T03:08:53.068Z,94280.78
2019-04-16T03:11:21.727Z,94281.88
2019-04-16T03:13:52.856Z,94279.90
2019-04-16T03:16:38.643Z,94281.80
2019-04-16T03:19:09.033Z,94276.91
2019-04-16T03:21:37.641Z,94281.67
2019-04-16T03:24:09.353Z,94280.88
2019-04-16T03:26:36.635Z,94283.44
2019-04-16T03:29:05.263Z,94283.89
2019-04-16T03:31:33.918Z,94290.56
2019-04-16T03:34:02.539Z,94287.90
2019-04-16T03:36:31.163Z,94283.87
2019-04-16T03:38:59.744Z,94282.78
2019-04-16T03:41:28.374Z,94294.56
2019-04-16T03:43:56.930Z,94293.88
2019-04-16T03:46:25.598Z,94294.90
2019-04-16T03:48:56.164Z,94293.47
2019-04-16T03:51:24.564Z,94296.75
2019-04-16T03:53:53.216Z,94292.78
2019-04-16T03:56:21.831Z,94297.13
2019-04-16T03:58:50.464Z,94302.89
2019-04-16T04:01:19.128Z,94295.66
2019-04-16T04:03:47.800Z,94300.78
2019-04-16T04:06:16.452Z,94300.13
2019-04-16T04:08:48.001Z,94301.80
2019-04-16T04:11:15.469Z,94305.34
2019-04-16T04:13:44.085Z,94314.77
2019-04-16T04:16:12.808Z,94313.68
2019-04-16T04:18:43.153Z,94321.19
2019-04-16T04:21:11.790Z,94322.34
2019-04-16T04:23:40.453Z,94320.54
2019-04-16T04:26:10.179Z,94319.22
2019-04-16T04:28:38.983Z,94325.78
2019-04-16T04:31:07.642Z,94332.48
2019-04-16T04:36:09.365Z,94343.47
2019-04-16T04:38:38.618Z,94344.61
2019-04-16T04:41:07.830Z,94347.70
2019-04-16T04:43:10.014Z,94338.81
2019-04-16T04:43:36.642Z,94336.08
2019-04-16T04:46:05.386Z,94349.52
2019-04-16T04:48:34.007Z,94359.06
2019-04-16T04:51:06.995Z,94354.30
2019-04-16T04:53:33.280Z,94363.81
2019-04-16T04:56:01.929Z,94365.61
2019-04-16T04:58:33.788Z,94359.05
2019-04-16T05:01:00.902Z,94364.41
2019-04-16T05:03:49.085Z,94366.72
2019-04-16T05:06:19.402Z,94358.69
2019-04-16T05:08:48.021Z,94364.48
2019-04-16T05:11:17.121Z,94363.13
2019-04-16T05:13:45.871Z,94360.58
2019-04-16T05:16:14.510Z,94366.13
2019-04-16T05:18:43.142Z,94360.70
2019-04-16T05:21:11.837Z,94367.46
2019-04-16T05:23:40.480Z,94363.13
2019-04-16T05:26:09.957Z,94369.75
2019-04-16T05:28:44.314Z,94382.88
2019-04-16T05:31:09.096Z,94388.47
2019-04-16T05:33:38.219Z,94382.05
2019-04-16T05:36:06.871Z,94375.23
2019-04-16T05:38:35.505Z,94378.19
2019-04-16T05:41:13.200Z,94382.16
2019-04-16T05:43:34.698Z,94385.98
2019-04-16T05:46:05.499Z,94375.83
2019-04-16T05:48:33.667Z,94377.27
2019-04-16T05:51:02.363Z,94376.80
2019-04-16T05:53:30.982Z,94371.03
2019-04-16T05:56:20.223Z,94370.63
2019-04-16T05:58:47.803Z,94368.37
2019-04-16T06:01:18.072Z,94369.83
2019-04-16T06:03:46.790Z,94375.69
2019-04-16T06:06:15.461Z,94372.38
2019-04-16T06:08:44.104Z,94374.03
2019-04-16T06:11:26.722Z,94380.58
2019-04-16T06:13:47.432Z,94380.77
2019-04-16T06:16:26.748Z,94374.81
2019-04-16T06:19:12.988Z,94381.19
2019-04-16T06:21:59.268Z,94382.53
2019-04-16T06:24:32.379Z,94382.41
2019-04-16T06:27:04.282Z,94382.40
2019-04-16T06:29:50.453Z,94386.13
2019-04-16T06:32:28.153Z,94380.81
2019-04-16T06:34:58.788Z,94389.58
2019-04-16T06:37:31.826Z,94386.56
2019-04-16T06:40:18.135Z,94385.58
2019-04-16T06:42:48.455Z,94388.48
2019-04-16T06:45:18.726Z,94387.53
2019-04-16T06:47:51.924Z,94391.08
2019-04-16T06:50:31.080Z,94390.39
2019-04-16T06:53:03.393Z,94386.44
2019-04-16T06:55:36.116Z,94389.17
2019-04-16T06:58:18.500Z,94399.16
2019-04-16T07:01:06.768Z,94404.70
2019-04-16T07:03:48.993Z,94398.84
2019-04-16T07:06:36.337Z,94399.19
2019-04-16T07:09:14.167Z,94401.98
2019-04-16T07:11:54.164Z,94396.57
2019-04-16T07:14:16.363Z,94395.35
2019-04-16T07:16:45.180Z,94396.92
2019-04-16T07:19:16.646Z,94394.09
2019-04-16T07:21:48.648Z,94394.13
2019-04-16T07:24:14.556Z,94390.48
2019-04-16T07:26:46.397Z,94386.06
2019-04-16T07:29:33.207Z,94384.02
2019-04-16T07:32:18.731Z,94383.46
2019-04-16T07:34:49.002Z,94377.09
2019-04-16T07:37:19.291Z,94379.93
2019-04-16T07:40:09.996Z,94381.91
2019-04-16T07:42:57.966Z,94375.52
2019-04-16T07:45:44.130Z,94380.48
2019-04-16T07:48:32.862Z,94377.01
2019-04-16T07:51:19.597Z,94369.57
2019-04-16T07:53:49.871Z,94369.74
2019-04-16T07:56:26.190Z,94358.35
2019-04-16T07:59:00.235Z,94353.66
2019-04-16T08:01:25.161Z,94356.39
2019-04-16T08:03:57.452Z,94356.88
2019-04-16T08:06:24.107Z,94357.11
2019-04-16T08:08:53.890Z,94363.14
2019-04-16T08:11:23.286Z,94364.55
2019-04-16T08:13:51.928Z,94364.86
2019-04-16T08:16:20.631Z,94361.37
2019-04-16T08:18:50.366Z,94356.13
2019-04-16T08:21:22.267Z,94358.73
2019-04-16T08:23:52.883Z,94361.58
2019-04-16T08:26:21.475Z,94352.38
2019-04-16T08:28:50.052Z,94349.34
2019-04-16T08:31:20.311Z,94353.78
2019-04-16T08:33:48.989Z,94353.59
2019-04-16T08:36:17.923Z,94350.32
2019-04-16T08:38:46.548Z,94352.89
2019-04-16T08:41:20.045Z,94341.16
2019-04-16T08:43:45.640Z,94342.42
2019-04-16T08:46:14.267Z,94338.03
2019-04-16T08:48:42.924Z,94338.81
2019-04-16T08:51:11.668Z,94332.94
2019-04-16T08:53:40.259Z,94340.72
2019-04-16T08:56:08.906Z,94339.55
2019-04-16T08:58:38.546Z,94339.98
2019-04-16T09:01:08.909Z,94340.17
2019-04-16T09:03:37.517Z,94330.41
2019-04-16T09:06:06.132Z,94331.72
2019-04-16T09:08:45.367Z,94329.34
2019-04-16T09:11:23.292Z,94329.95
2019-04-16T09:13:48.150Z,94323.13
2019-04-16T09:16:16.427Z,94323.72
2019-04-16T09:18:55.871Z,94319.20
2019-04-16T09:21:27.726Z,94326.75
2019-04-16T09:24:12.825Z,94323.44
2019-04-16T09:26:45.836Z,94321.14
2019-04-16T09:29:16.114Z,94311.20
2019-04-16T09:31:55.073Z,94313.81
2019-04-16T09:34:24.442Z,94309.56
2019-04-16T09:37:00.811Z,94312.20
2019-04-16T09:39:40.361Z,94303.09
2019-04-16T09:42:09.002Z,94297.70
2019-04-16T09:44:37.625Z,94298.83
2019-04-16T09:47:06.314Z,94297.64
2019-04-16T09:49:37.670Z,94302.02
2019-04-16T09:52:05.362Z,94290.39
2019-04-16T09:54:34.028Z,94290.94
2019-04-16T09:57:02.653Z,94297.27
2019-04-16T09:59:32.925Z,94299.58
2019-04-16T10:02:03.242Z,94306.45
2019-04-16T10:04:31.868Z,94294.77
2019-04-16T10:07:00.494Z,94288.41
2019-04-16T10:09:29.179Z,94288.84
2019-04-16T10:11:57.799Z,94284.09
2019-04-16T10:14:26.429Z,94276.16
2019-04-16T10:16:55.084Z,94281.34
2019-04-16T10:19:23.859Z,94278.10
2019-04-16T10:21:54.244Z,94284.63
2019-04-16T10:24:24.558Z,94271.77
2019-04-16T10:26:56.961Z,94257.52
2019-04-16T10:29:25.166Z,94263.02
2019-04-16T10:31:55.193Z,94261.35
2019-04-16T10:34:23.893Z,94258.02
2019-04-16T10:36:52.521Z,94255.31
2019-04-16T10:39:28.806Z,94247.98
2019-04-16T10:41:59.084Z,94244.95
2019-04-16T10:44:29.344Z,94251.54
2019-04-16T10:47:05.441Z,94243.98
2019-04-16T10:49:51.955Z,94239.22
2019-04-16T10:52:22.490Z,94230.36
2019-04-16T10:57:51.081Z,94230.72
2019-04-16T11:00:37.438Z,94228.63
2019-04-16T11:03:10.732Z,94244.00
2019-04-16T11:05:41.005Z,94235.20
2019-04-16T11:08:10.601Z,94235.19
2019-04-16T11:10:39.255Z,94231.61
2019-04-16T11:13:09.493Z,94226.88
2019-04-16T11:15:39.888Z,94224.55
2019-04-16T11:18:08.575Z,94227.50
2019-04-16T11:20:37.194Z,94213.77
2019-04-16T11:23:07.599Z,94208.37
2019-04-16T11:25:36.581Z,94216.06
2019-04-16T11:28:05.217Z,94208.29
2019-04-16T11:30:35.483Z,94209.72
2019-04-16T11:33:04.125Z,94216.12
2019-04-16T11:35:32.765Z,94239.39
2019-04-16T11:38:01.382Z,94242.31
2019-04-16T11:40:30.072Z,94246.34
2019-04-16T11:42:58.708Z,94248.78
2019-04-16T11:45:27.368Z,94259.52
2019-04-16T11:47:56.025Z,94253.72
2019-04-16T11:50:24.669Z,94270.75
2019-04-16T11:52:57.233Z,94271.20
2019-04-16T11:55:23.748Z,94251.09
2019-04-16T11:57:52.513Z,94257.76
2019-04-16T12:00:26.490Z,94260.05
2019-04-16T12:03:13.042Z,94260.66
2019-04-16T12:05:51.998Z,94247.52
2019-04-16T12:08:22.299Z,94239.28
2019-04-16T12:11:01.660Z,94244.30
2019-04-16T12:13:31.915Z,94240.80
2019-04-16T12:16:17.533Z,94237.92
2019-04-16T12:18:47.793Z,94230.14
2019-04-16T12:21:18.092Z,94229.31
2019-04-16T12:23:48.317Z,94230.42
2019-04-16T12:26:24.762Z,94245.17
2019-04-16T12:28:55.036Z,94246.47
2019-04-16T12:31:28.133Z,94235.52
2019-04-16T12:34:07.710Z,94236.41
2019-04-16T12:36:56.046Z,94234.91
2019-04-16T12:39:36.037Z,94232.22
2019-04-16T12:42:06.712Z,94238.85
2019-04-16T12:44:45.325Z,94249.20
2019-04-16T12:47:09.034Z,94240.27
2019-04-16T12:49:55.799Z,94235.44
2019-04-16T12:52:38.005Z,94222.20
2019-04-16T12:55:24.534Z,94210.99
2019-04-16T12:57:59.047Z,94213.94
2019-04-16T13:00:47.286Z,94213.44
2019-04-16T13:03:23.586Z,94213.11
2019-04-16T13:06:11.763Z,94208.15
2019-04-16T13:08:45.129Z,94198.73
2019-04-16T13:11:15.391Z,94203.61
2019-04-16T13:14:00.754Z,94194.54
2019-04-16T13:16:47.386Z,94187.45
2019-04-16T13:19:34.239Z,94192.47
2019-04-16T13:22:04.336Z,94186.77
2019-04-16T13:24:40.798Z,94200.13
2019-04-16T13:27:27.791Z,94205.73
2019-04-16T13:30:01.294Z,94205.77
2019-04-16T13:32:27.961Z,94210.44
2019-04-16T13:34:58.207Z,94210.84
2019-04-16T13:37:30.327Z,94212.73
2019-04-16T13:39:59.620Z,94207.38
2019-04-16T13:42:28.799Z,94213.58
2019-04-16T13:44:59.579Z,94207.23
2019-04-16T13:47:29.367Z,94205.27
2019-04-16T13:50:02.582Z,94204.36
2019-04-16T13:52:30.041Z,94192.59
2019-04-16T13:55:10.574Z,94194.22
2019-04-16T13:57:44.178Z,94189.38
2019-04-16T14:00:14.542Z,94177.30
2019-04-16T14:02:47.811Z,94182.72
2019-04-16T14:05:15.486Z,94184.94
2019-04-16T14:07:44.110Z,94189.38
2019-04-16T14:10:13.010Z,94185.97
2019-04-16T14:12:42.770Z,94186.53
2019-04-16T14:15:11.860Z,94190.67
2019-04-16T14:17:52.178Z,94180.94
2019-04-16T14:20:12.308Z,94178.33
2019-04-16T14:22:41.692Z,94170.24
2019-04-16T14:25:11.522Z,94175.47
2019-04-16T14:27:40.196Z,94169.19
2019-04-16T14:30:16.777Z,94176.84
2019-04-16T14:32:45.439Z,94176.40
2019-04-16T14:35:16.100Z,94180.63
2019-04-16T14:37:44.733Z,94176.55
2019-04-16T14:40:16.031Z,94170.83
2019-04-16T14:42:44.662Z,94176.16
2019-04-16T14:45:28.173Z,94178.72
2019-04-16T14:47:56.897Z,94180.44
2019-04-16T14:50:25.569Z,94177.84
2019-04-16T14:52:54.226Z,94176.92
2019-04-16T14:55:27.468Z,94176.92
2019-04-16T14:58:03.472Z,94180.34
2019-04-16T15:00:37.176Z,94175.80
2019-04-16T15:03:07.442Z,94179.19
2019-04-16T15:05:37.748Z,94169.23
2019-04-16T15:08:14.059Z,94176.14
2019-04-16T15:11:00.799Z,94175.23
2019-04-16T15:13:31.100Z,94166.28
2019-04-16T15:16:10.818Z,94165.61
2019-04-16T15:18:33.358Z,94165.59
2019-04-16T15:21:12.579Z,94157.36
2019-04-16T15:23:42.938Z,94161.63
2019-04-16T15:26:13.204Z,94166.02
2019-04-16T15:28:43.477Z,94164.45
2019-04-16T15:31:19.503Z,94154.05
2019-04-16T15:33:55.761Z,94156.47
2019-04-16T15:36:26.214Z,94159.83
2019-04-16T15:38:59.075Z,94165.88
2019-04-16T15:41:46.544Z,94166.75
2019-04-16T15:44:22.834Z,94168.28
2019-04-16T15:47:03.863Z,94166.86
2019-04-16T15:49:34.136Z,94176.03
2019-04-16T15:52:09.910Z,94173.14
2019-04-16T15:54:44.929Z,94179.95
2019-04-16T15:57:17.910Z,94166.48
2019-04-16T15:59:54.219Z,94163.45
2019-04-16T16:02:33.514Z,94178.30
2019-04-16T16:05:03.820Z,94172.22
2019-04-16T16:07:32.819Z,94165.30
2019-04-16T16:10:12.388Z,94163.88
2019-04-16T16:12:39.481Z,94163.31
2019-04-16T16:15:09.825Z,94159.00
2019-04-16T16:17:38.525Z,94159.39
2019-04-16T16:20:10.236Z,94151.91
2019-04-16T16:22:38.100Z,94160.47
2019-04-16T16:25:08.009Z,94154.11
2019-04-16T16:27:41.766Z,94151.19
2019-04-16T16:30:07.687Z,94155.95
2019-04-16T16:32:36.353Z,94145.94
2019-04-16T16:35:06.585Z,94144.78
2019-04-16T16:37:36.883Z,94150.70
2019-04-16T16:40:06.836Z,94150.97
2019-04-16T16:42:35.396Z,94151.71
2019-04-16T16:45:04.641Z,94146.93
2019-04-16T16:47:34.944Z,94153.84
2019-04-16T16:50:03.767Z,94147.94
2019-04-16T16:52:37.087Z,94148.72
2019-04-16T16:55:09.117Z,94155.97
2019-04-16T16:57:42.290Z,94154.63
2019-04-16T17:00:24.040Z,94153.50
2019-04-16T17:03:02.512Z,94163.45
2019-04-16T17:05:32.840Z,94159.42
2019-04-16T17:08:01.470Z,94162.27
2019-04-16T17:10:30.186Z,94163.39
2019-04-16T17:12:58.860Z,94162.17
2019-04-16T17:15:27.555Z,94165.45
2019-04-16T17:17:56.347Z,94158.34
2019-04-16T17:20:25.046Z,94163.19
2019-04-16T17:22:53.803Z,94165.16
2019-04-16T17:25:35.491Z,94164.51
2019-04-16T17:27:52.807Z,94167.58
2019-04-16T17:30:21.618Z,94163.25
2019-04-16T17:32:50.344Z,94170.03
2019-04-16T17:35:19.002Z,94172.91
2019-04-16T17:37:47.723Z,94173.55
2019-04-16T17:40:18.010Z,94177.75
2019-04-16T17:42:48.351Z,94176.14
2019-04-16T17:45:18.602Z,94177.20
2019-04-16T17:48:00.796Z,94177.89
2019-04-16T17:50:39.584Z,94191.53
2019-04-16T17:53:12.003Z,94189.09
2019-04-16T17:55:43.265Z,94193.09
2019-04-16T17:58:13.605Z,94207.16
2019-04-16T18:00:46.927Z,94209.03
2019-04-16T18:03:37.256Z,94213.16
2019-04-16T18:06:07.408Z,94207.55
2019-04-16T18:08:37.681Z,94220.08
2019-04-16T18:11:10.948Z,94219.96
2019-04-16T18:13:41.267Z,94223.37
2019-04-16T18:16:11.587Z,94225.52
2019-04-16T18:18:44.800Z,94232.26
2019-04-16T18:21:18.160Z,94231.28
2019-04-16T18:23:57.257Z,94232.56
2019-04-16T18:26:33.243Z,94236.45
2019-04-16T18:29:06.506Z,94235.35
2019-04-16T18:31:42.769Z,94238.64
2019-04-16T18:34:29.059Z,94242.17
2019-04-16T18:37:14.224Z,94241.17
2019-04-16T18:39:53.278Z,94245.05
2019-04-16T18:42:23.587Z,94238.68
2019-04-16T18:45:10.006Z,94238.75
2019-04-16T18:47:40.327Z,94237.50
2019-04-16T18:50:13.479Z,94244.62
2019-04-16T18:52:42.121Z,94241.41
2019-04-16T18:55:10.946Z,94231.71
2019-04-16T18:57:39.577Z,94239.66
2019-04-16T19:00:10.665Z,94243.92
2019-04-16T19:02:42.078Z,94246.50
2019-04-16T19:05:09.968Z,94242.05
2019-04-16T19:07:38.681Z,94246.69
2019-04-16T19:10:07.811Z,94250.41
2019-04-16T19:12:36.531Z,94244.55
2019-04-16T19:15:07.715Z,94255.48
2019-04-16T19:17:37.779Z,94246.17
2019-04-16T19:20:06.576Z,94245.45
2019-04-16T19:22:35.284Z,94247.50
2019-04-16T19:25:08.331Z,94252.38
2019-04-16T19:27:35.284Z,94246.69
2019-04-16T19:30:05.792Z,94247.06
2019-04-16T19:32:36.056Z,94240.66
2019-04-16T19:35:09.944Z,94238.25
2019-04-16T19:37:35.399Z,94249.96
2019-04-16T19:40:04.531Z,94243.55
2019-04-16T19:42:33.238Z,94240.66
2019-04-16T19:45:01.946Z,94243.67
2019-04-16T19:47:30.684Z,94244.02
2019-04-16T19:49:59.379Z,94251.33
2019-04-16T19:52:29.533Z,94254.72
2019-04-16T19:54:58.262Z,94258.22
2019-04-16T19:57:27.044Z,94248.86
2019-04-16T19:59:55.747Z,94252.23
2019-04-16T20:02:25.351Z,94254.33
2019-04-16T20:04:54.191Z,94259.17
2019-04-16T20:07:22.852Z,94254.03
2019-04-16T20:09:51.617Z,94260.63
2019-04-16T20:12:20.304Z,94248.38
2019-04-16T20:14:49.013Z,94250.26
2019-04-16T20:17:17.749Z,94252.70
2019-04-16T20:19:58.496Z,94253.41
2019-04-16T20:22:31.174Z,94253.27
2019-04-16T20:24:59.878Z,94256.98
2019-04-16T20:27:28.623Z,94257.74
2019-04-16T20:29:57.479Z,94257.27
2019-04-16T20:32:27.514Z,94254.02
2019-04-16T20:34:56.139Z,94261.90
2019-04-16T20:37:24.820Z,94257.85
2019-04-16T20:39:53.643Z,94252.92
2019-04-16T20:42:22.267Z,94260.42
2019-04-16T20:44:50.922Z,94255.93
2019-04-16T20:47:19.474Z,94251.50
2019-04-16T20:49:49.175Z,94244.19
2019-04-16T20:52:18.526Z,94246.89
2019-04-16T20:54:48.798Z,94247.27
2019-04-16T20:57:17.432Z,94254.48
2019-04-16T20:59:46.094Z,94248.78
2019-04-16T21:02:14.794Z,94240.86
2019-04-16T21:04:44.219Z,94243.30
2019-04-16T21:07:15.369Z,94246.31
2019-04-16T21:09:43.309Z,94253.03
2019-04-16T21:12:13.189Z,94246.88
2019-04-16T21:14:42.257Z,94242.34
2019-04-16T21:17:10.888Z,94239.19
2019-04-16T21:19:46.772Z,94244.28
2019-04-16T21:22:17.371Z,94237.67
2019-04-16T21:24:46.850Z,94237.91
2019-04-16T21:27:15.571Z,94237.42
2019-04-16T21:29:44.249Z,94236.80
2019-04-16T21:32:23.617Z,94235.20
2019-04-16T21:34:59.851Z,94239.52
2019-04-16T21:37:32.006Z,94239.75
2019-04-16T21:40:02.342Z,94235.88
2019-04-16T21:42:34.414Z,94236.70
2019-04-16T21:45:01.320Z,94233.36
2019-04-16T21:47:29.978Z,94231.66
2019-04-16T21:49:58.595Z,94235.77
2019-04-16T21:52:27.227Z,94239.55
2019-04-16T21:54:55.890Z,94235.75
2019-04-16T21:57:24.510Z,94232.25
2019-04-16T21:59:56.977Z,94241.45
2019-04-16T22:02:25.283Z,94231.65
2019-04-16T22:04:54.747Z,94238.45
2019-04-16T22:07:24.587Z,94239.54
2019-04-16T22:09:53.760Z,94235.22
2019-04-16T22:12:22.393Z,94243.20
2019-04-16T22:14:54.365Z,94244.23
2019-04-16T22:17:21.383Z,94235.02
2019-04-16T22:19:54.444Z,94243.89
2019-04-16T22:22:20.355Z,94247.22
2019-04-16T22:24:51.743Z,94247.00
2019-04-16T22:27:19.350Z,94251.66
2019-04-16T22:29:48.307Z,94252.67
2019-04-16T22:32:19.023Z,94258.89
2019-04-16T22:34:47.643Z,94259.00
2019-04-16T22:37:16.275Z,94261.80
2019-04-16T22:39:50.814Z,94258.12
2019-04-16T22:42:18.549Z,94254.67
2019-04-16T22:44:57.306Z,94252.09
2019-04-16T22:47:30.477Z,94257.73
2019-04-16T22:50:14.344Z,94252.17
2019-04-16T22:52:30.427Z,94257.00
2019-04-16T22:54:59.040Z,94253.44
2019-04-16T22:57:30.871Z,94251.00
2019-04-16T22:59:58.351Z,94252.23
2019-04-16T23:02:28.581Z,94252.23
2019-04-16T23:04:58.528Z,94243.88
2019-04-16T23:07:27.587Z,94245.67
2019-04-16T23:09:56.206Z,94248.67
2019-04-16T23:12:28.037Z,94247.80
2019-04-16T23:14:55.222Z,94245.77
2019-04-16T23:17:25.474Z,94241.01
2019-04-16T23:19:54.596Z,94247.89
2019-04-16T23:22:24.135Z,94244.26
2019-04-16T23:24:55.123Z,94244.91
2019-04-16T23:27:23.092Z,94246.08
2019-04-16T23:29:51.747Z,94244.53
2019-04-16T23:32:20.433Z,94238.55
2019-04-16T23:34:49.056Z,94238.33
2019-04-16T23:37:22.999Z,94235.45
2019-04-16T23:39:47.975Z,94235.89
2019-04-16T23:42:19.052Z,94239.45
2019-04-16T23:44:48.608Z,94238.34
2019-04-16T23:47:34.831Z,94241.65
2019-04-16T23:50:08.149Z,94236.09
2019-04-16T23:52:38.426Z,94227.58
2019-04-16T23:55:17.457Z,94239.32
2019-04-16T23:58:04.667Z,94242.48
